Time;durP1;ratioP1;P1;durP2;ratioP2;P2;SDS_P1;SDS_P2;PMS_P1;PMS_P2;Temp;Humidity;BMP_temperature;BMP_pressure;BME280_temperature;BME280_humidity;BME280_pressure;Samples;Min_cycle;Max_cycle;Signal;HPM_P1;HPM_P2
2024/01/05 00:01:38;;;;;;;11.70;5.30;;;2.80;99.90;;;;;;4865524;29;20045;-77
2024/01/05 00:04:06;;;;;;;12.70;5.28;;;2.80;99.90;;;;;;4865393;29;20049;-77
2024/01/05 00:06:38;;;;;;;16.58;6.22;;;2.80;99.90;;;;;;4865245;29;20565;-77
2024/01/05 00:09:04;;;;;;;10.18;5.47;;;2.80;99.90;;;;;;4865681;29;20080;-77
2024/01/05 00:11:32;;;;;;;12.48;5.28;;;2.80;99.90;;;;;;4865433;29;20057;-77
2024/01/05 00:14:02;;;;;;;10.45;5.70;;;2.80;99.90;;;;;;4865378;29;20048;-77
2024/01/05 00:16:28;;;;;;;12.98;5.55;;;2.80;99.90;;;;;;4865223;29;20480;-77
2024/01/05 00:18:53;;;;;;;10.63;5.55;;;2.80;99.90;;;;;;4881729;29;20076;-77
2024/01/05 00:21:24;;;;;;;12.60;5.82;;;2.80;99.90;;;;;;4882062;29;20543;-77
2024/01/05 00:23:51;;;;;;;11.32;5.55;;;2.80;99.90;;;;;;4882023;29;20201;-77
2024/01/05 00:26:17;;;;;;;10.85;5.88;;;2.70;99.90;;;;;;4881961;29;20081;-77
2024/01/05 00:28:47;;;;;;;12.13;5.65;;;2.70;99.90;;;;;;4865278;29;20048;-76
2024/01/05 00:31:14;;;;;;;12.80;5.50;;;2.80;99.90;;;;;;4881829;29;20047;-77
2024/01/05 00:33:40;;;;;;;13.38;5.57;;;2.80;99.90;;;;;;4865235;29;20552;-77
2024/01/05 00:36:08;;;;;;;12.88;5.63;;;2.70;99.90;;;;;;4865088;29;20052;-77
2024/01/05 00:38:35;;;;;;;11.38;5.32;;;2.70;99.90;;;;;;4865035;29;20397;-77
2024/01/05 00:41:01;;;;;;;11.80;6.13;;;2.60;99.90;;;;;;4864243;29;20488;-77
2024/01/05 00:43:27;;;;;;;14.23;6.68;;;2.70;99.90;;;;;;4865077;29;20056;-76
2024/01/05 00:45:53;;;;;;;12.50;6.05;;;2.60;99.90;;;;;;4864771;29;20049;-77
2024/01/05 00:48:19;;;;;;;13.13;6.38;;;2.60;99.90;;;;;;4864744;29;20053;-77
2024/01/05 00:50:44;;;;;;;12.07;6.25;;;2.60;99.90;;;;;;4864792;29;20049;-76
2024/01/05 00:53:10;;;;;;;11.68;5.90;;;2.50;99.90;;;;;;4864496;29;20061;-77
2024/01/05 00:55:35;;;;;;;11.85;6.38;;;2.50;99.90;;;;;;4864754;29;20084;-77
2024/01/05 00:58:01;;;;;;;14.63;7.10;;;2.50;99.90;;;;;;4864528;29;20389;-77
2024/01/05 01:00:27;;;;;;;18.15;7.82;;;2.50;99.90;;;;;;4864441;29;20045;-77
2024/01/05 01:02:55;;;;;;;15.77;7.60;;;2.40;99.90;;;;;;4864710;29;20068;-77
2024/01/05 01:05:22;;;;;;;14.50;8.07;;;2.40;99.90;;;;;;4864303;29;20056;-77
2024/01/05 01:07:48;;;;;;;16.10;8.07;;;2.40;99.90;;;;;;4864165;29;20056;-77
2024/01/05 01:10:16;;;;;;;17.08;8.35;;;2.40;99.90;;;;;;4864537;29;20044;-77
2024/01/05 01:12:42;;;;;;;16.60;7.10;;;2.40;99.90;;;;;;4864186;29;20056;-77
2024/01/05 01:15:08;;;;;;;15.75;7.55;;;2.40;99.90;;;;;;4864252;29;20040;-77
2024/01/05 01:17:34;;;;;;;22.02;9.85;;;2.40;99.90;;;;;;4864550;29;20064;-77
2024/01/05 01:20:00;;;;;;;17.52;7.57;;;2.30;99.90;;;;;;4864124;29;20056;-77
2024/01/05 01:22:26;;;;;;;18.38;8.05;;;2.40;99.90;;;;;;4880927;29;20125;-77
2024/01/05 01:24:51;;;;;;;22.23;8.85;;;2.30;99.90;;;;;;4864018;29;20057;-77
2024/01/05 01:27:17;;;;;;;16.02;7.75;;;2.30;99.90;;;;;;4864288;29;20077;-77
2024/01/05 01:29:43;;;;;;;17.40;8.65;;;2.20;99.90;;;;;;4864021;29;20463;-77
2024/01/05 01:32:09;;;;;;;22.77;8.98;;;2.20;99.90;;;;;;4864239;29;20052;-77
2024/01/05 01:34:39;;;;;;;21.65;8.77;;;2.20;99.90;;;;;;4864308;29;20120;-77
2024/01/05 01:37:04;;;;;;;22.77;8.63;;;2.30;99.90;;;;;;4864022;29;20378;-77
2024/01/05 01:39:30;;;;;;;17.77;8.60;;;2.20;99.90;;;;;;4863703;29;20097;-77
2024/01/05 01:41:57;;;;;;;19.10;9.32;;;2.20;99.90;;;;;;4863661;29;20049;-77
2024/01/05 01:44:22;;;;;;;21.55;8.07;;;2.30;99.90;;;;;;4864040;29;20384;-77
2024/01/05 01:46:50;;;;;;;19.25;8.77;;;2.20;99.90;;;;;;4864030;29;20051;-77
2024/01/05 01:49:16;;;;;;;18.42;8.73;;;2.30;99.90;;;;;;4863913;29;20565;-77
2024/01/05 01:51:43;;;;;;;15.63;7.80;;;2.30;99.90;;;;;;4863627;29;20057;-77
2024/01/05 01:54:09;;;;;;;24.00;10.13;;;2.30;99.90;;;;;;4862678;29;20049;-77
2024/01/05 01:56:36;;;;;;;16.40;7.18;;;2.20;99.90;;;;;;4880339;29;20080;-77
2024/01/05 01:59:03;;;;;;;17.83;8.43;;;2.30;99.90;;;;;;4863573;29;20480;-77
2024/01/05 02:01:29;;;;;;;22.08;9.32;;;2.30;99.90;;;;;;4863415;29;20432;-77
2024/01/05 02:03:56;;;;;;;19.83;8.40;;;2.20;99.90;;;;;;4862850;29;20061;-77
2024/01/05 02:06:21;;;;;;;19.60;8.80;;;2.20;99.90;;;;;;4863289;29;20465;-77
2024/01/05 02:08:47;;;;;;;19.30;8.68;;;2.20;99.90;;;;;;4863310;29;20469;-77
2024/01/05 02:11:14;;;;;;;21.63;8.93;;;2.20;99.90;;;;;;4863409;29;20053;-77
2024/01/05 02:13:40;;;;;;;19.25;8.30;;;2.20;99.90;;;;;;4863628;29;20064;-77
2024/01/05 02:16:05;;;;;;;25.75;9.43;;;2.20;99.90;;;;;;4863723;29;20056;-77
2024/01/05 02:18:31;;;;;;;19.88;8.13;;;2.20;99.90;;;;;;4863363;29;20060;-77
2024/01/05 02:21:00;;;;;;;21.58;9.02;;;2.20;99.90;;;;;;4879975;29;20053;-77
2024/01/05 02:23:30;;;;;;;15.63;7.65;;;2.20;99.90;;;;;;4862535;29;20152;-77
2024/01/05 02:25:57;;;;;;;20.83;8.20;;;2.20;99.90;;;;;;4863291;29;20480;-77
2024/01/05 02:28:24;;;;;;;27.85;9.13;;;2.30;99.90;;;;;;4863213;29;20056;-77
2024/01/05 02:30:49;;;;;;;18.85;8.63;;;2.20;99.90;;;;;;4863264;29;20051;-77
2024/01/05 02:33:15;;;;;;;22.65;8.93;;;2.20;99.90;;;;;;4863245;29;20140;-77
2024/01/05 02:35:41;;;;;;;17.92;8.60;;;2.30;99.90;;;;;;4863106;29;20045;-77
2024/01/05 02:38:07;;;;;;;24.25;9.50;;;2.20;99.90;;;;;;4863056;29;20041;-77
2024/01/05 02:40:33;;;;;;;20.25;9.65;;;2.20;99.90;;;;;;4863080;29;20053;-77
2024/01/05 02:42:59;;;;;;;19.35;8.75;;;2.20;99.90;;;;;;4863147;29;20048;-77
2024/01/05 02:45:24;;;;;;;20.55;8.05;;;2.20;99.90;;;;;;4863385;29;20055;-77
2024/01/05 02:47:56;;;;;;;21.00;8.38;;;2.20;99.90;;;;;;4862932;29;20067;-77
2024/01/05 02:50:22;;;;;;;24.75;10.77;;;2.30;99.90;;;;;;4862976;29;20113;-77
2024/01/05 02:52:47;;;;;;;24.52;9.23;;;2.20;99.90;;;;;;4863177;29;20049;-77
2024/01/05 02:55:13;;;;;;;28.40;8.93;;;2.20;99.90;;;;;;4862983;29;20504;-77
2024/01/05 02:57:41;;;;;;;21.15;10.10;;;2.20;99.90;;;;;;4862942;29;20084;-78
2024/01/05 03:00:07;;;;;;;23.35;9.80;;;2.20;99.90;;;;;;4863046;29;20133;-77
2024/01/05 03:02:32;;;;;;;24.98;10.30;;;2.20;99.90;;;;;;4862866;29;20045;-77
2024/01/05 03:05:02;;;;;;;22.38;9.40;;;2.20;99.90;;;;;;4864318;29;20121;-78
2024/01/05 03:07:28;;;;;;;43.50;10.05;;;2.20;99.90;;;;;;4866501;29;20057;-78
2024/01/05 03:09:56;;;;;;;24.40;10.48;;;2.30;99.90;;;;;;4866592;29;20105;-78
2024/01/05 03:12:22;;;;;;;26.83;10.35;;;2.20;99.90;;;;;;4866432;29;20056;-77
2024/01/05 03:14:48;;;;;;;25.17;9.65;;;2.20;99.90;;;;;;4866449;29;20045;-77
2024/01/05 03:17:13;;;;;;;28.67;10.65;;;2.30;99.90;;;;;;4866287;29;20045;-78
2024/01/05 03:19:39;;;;;;;22.33;9.77;;;2.30;99.90;;;;;;4866227;29;20136;-77
2024/01/05 03:22:04;;;;;;;27.17;10.32;;;2.30;99.90;;;;;;4866495;29;20088;-78
2024/01/05 03:24:30;;;;;;;27.60;10.27;;;2.30;99.90;;;;;;4866294;29;20456;-78
2024/01/05 03:26:55;;;;;;;21.23;9.73;;;2.30;99.90;;;;;;4866571;29;20109;-78
2024/01/05 03:29:21;;;;;;;21.42;8.77;;;2.20;99.90;;;;;;4866234;29;20484;-78
2024/01/05 03:31:47;;;;;;;26.38;10.88;;;2.20;99.90;;;;;;4866346;29;20045;-78
2024/01/05 03:34:13;;;;;;;25.40;11.00;;;2.30;99.90;;;;;;4866130;29;20449;-78
2024/01/05 03:36:45;;;;;;;31.10;12.32;;;2.30;99.90;;;;;;4866140;29;20072;-78
2024/01/05 03:39:11;;;;;;;23.42;9.38;;;2.20;99.90;;;;;;4866021;29;20044;-78
2024/01/05 03:41:37;;;;;;;27.15;11.13;;;2.20;99.90;;;;;;4883077;29;20051;-78
2024/01/05 03:44:04;;;;;;;26.30;11.73;;;2.20;99.90;;;;;;4865866;29;20056;-78
2024/01/05 03:46:29;;;;;;;25.40;11.23;;;2.20;99.90;;;;;;4865770;29;20503;-78
2024/01/05 03:48:55;;;;;;;26.17;10.82;;;2.20;99.90;;;;;;4882493;29;20048;-78
2024/01/05 03:51:21;;;;;;;22.20;9.68;;;2.20;99.90;;;;;;4866004;29;20053;-78
2024/01/05 03:53:46;;;;;;;20.35;8.98;;;2.20;99.90;;;;;;4865807;29;20060;-78
2024/01/05 03:56:12;;;;;;;22.48;10.68;;;2.20;99.90;;;;;;4865955;29;20049;-78
2024/01/05 03:58:37;;;;;;;29.10;12.80;;;2.20;99.90;;;;;;4865745;29;20057;-78
2024/01/05 04:01:04;;;;;;;20.08;9.23;;;2.20;99.90;;;;;;4865424;29;20056;-78
2024/01/05 04:03:31;;;;;;;21.88;10.43;;;2.30;99.90;;;;;;4865434;29;20136;-78
2024/01/05 04:05:57;;;;;;;27.15;11.98;;;2.20;99.90;;;;;;4865604;29;20080;-78
2024/01/05 04:08:22;;;;;;;27.55;11.43;;;2.20;99.90;;;;;;4865799;29;20045;-78
2024/01/05 04:10:48;;;;;;;25.90;10.95;;;2.20;99.90;;;;;;4881933;29;20496;-78
2024/01/05 04:13:14;;;;;;;26.45;10.52;;;2.20;99.90;;;;;;4882122;29;20081;-78
2024/01/05 04:15:40;;;;;;;25.98;11.30;;;2.20;99.90;;;;;;4881293;29;20136;-78
2024/01/05 04:18:06;;;;;;;23.10;10.15;;;2.20;99.90;;;;;;4865198;29;20041;-78
2024/01/05 04:20:32;;;;;;;20.05;9.90;;;2.20;99.90;;;;;;4865392;29;20053;-78
2024/01/05 04:22:59;;;;;;;29.55;12.25;;;2.20;99.90;;;;;;4865250;29;20041;-78
2024/01/05 04:25:31;;;;;;;22.65;9.55;;;2.20;99.90;;;;;;4865236;29;20064;-78
2024/01/05 04:27:57;;;;;;;22.20;10.30;;;2.20;99.90;;;;;;4865254;29;20049;-78
2024/01/05 04:30:24;;;;;;;24.90;9.68;;;2.20;99.90;;;;;;4864986;29;20180;-78
2024/01/05 04:32:49;;;;;;;22.60;9.75;;;2.30;99.90;;;;;;4881823;29;20056;-78
2024/01/05 04:35:15;;;;;;;20.73;10.15;;;2.20;99.90;;;;;;4865026;29;20053;-78
2024/01/05 04:37:41;;;;;;;26.02;11.65;;;2.20;99.90;;;;;;4865273;29;20045;-78
2024/01/05 04:40:07;;;;;;;24.35;11.57;;;2.20;99.90;;;;;;4864761;29;20468;-78
2024/01/05 04:42:33;;;;;;;25.25;11.80;;;2.10;99.90;;;;;;4864699;29;20045;-78
2024/01/05 04:44:58;;;;;;;25.58;9.82;;;2.20;99.90;;;;;;4865043;29;20057;-78
2024/01/05 04:47:24;;;;;;;25.95;11.38;;;2.20;99.90;;;;;;4864775;29;20099;-78
2024/01/05 04:49:53;;;;;;;29.05;11.48;;;2.20;99.90;;;;;;4863863;29;20128;-78
2024/01/05 04:52:19;;;;;;;22.63;11.10;;;2.20;99.90;;;;;;4864710;29;20131;-78
2024/01/05 04:54:44;;;;;;;28.08;11.45;;;2.20;99.90;;;;;;4864718;29;20469;-78
2024/01/05 04:57:10;;;;;;;19.63;9.25;;;2.20;99.90;;;;;;4864543;29;20104;-78
2024/01/05 04:59:35;;;;;;;22.63;11.38;;;2.20;99.90;;;;;;4864712;29;20056;-78
2024/01/05 05:02:01;;;;;;;23.98;12.07;;;2.20;99.90;;;;;;4864548;29;20490;-78
2024/01/05 05:04:29;;;;;;;23.05;11.95;;;2.10;99.90;;;;;;4864144;29;20060;-78
2024/01/05 05:06:55;;;;;;;26.98;11.52;;;2.10;99.90;;;;;;4864514;29;20053;-78
2024/01/05 05:09:20;;;;;;;25.52;11.90;;;2.20;99.90;;;;;;4880973;29;20168;-78
2024/01/05 05:11:46;;;;;;;23.58;10.73;;;2.10;99.90;;;;;;4864267;29;20052;-78
2024/01/05 05:14:12;;;;;;;25.38;13.68;;;2.10;99.90;;;;;;4864271;29;20048;-78
2024/01/05 05:16:38;;;;;;;21.13;10.82;;;2.10;99.90;;;;;;4864278;29;20096;-78
2024/01/05 05:19:04;;;;;;;27.92;12.65;;;2.10;99.90;;;;;;4864518;29;20053;-78
2024/01/05 05:21:30;;;;;;;22.05;10.10;;;2.10;99.90;;;;;;4864230;29;20400;-78
2024/01/05 05:23:56;;;;;;;20.10;9.15;;;2.20;99.90;;;;;;4864463;29;20049;-78
2024/01/05 05:26:21;;;;;;;19.67;10.35;;;2.20;99.90;;;;;;4880735;29;20067;-78
2024/01/05 05:28:47;;;;;;;24.95;10.63;;;2.20;99.90;;;;;;4863845;29;20076;-78
2024/01/05 05:31:16;;;;;;;22.25;9.60;;;2.30;99.90;;;;;;4880800;29;20044;-78
2024/01/05 05:33:41;;;;;;;21.50;10.75;;;2.20;99.90;;;;;;4864203;29;20067;-79
2024/01/05 05:36:07;;;;;;;21.05;9.70;;;2.20;99.90;;;;;;4864286;29;20041;-78
2024/01/05 05:38:32;;;;;;;18.75;7.90;;;2.30;99.90;;;;;;4863945;29;20071;-78
2024/01/05 05:40:58;;;;;;;19.92;9.13;;;2.30;99.90;;;;;;4863806;29;20097;-78
2024/01/05 05:43:23;;;;;;;21.17;10.60;;;2.20;99.90;;;;;;4863790;29;20161;-78
2024/01/05 05:45:49;;;;;;;20.35;10.00;;;2.30;99.90;;;;;;4863984;29;20049;-78
2024/01/05 05:48:15;;;;;;;17.50;8.07;;;2.30;99.90;;;;;;4880447;29;20396;-78
2024/01/05 05:50:41;;;;;;;20.63;10.20;;;2.30;99.90;;;;;;4863794;29;20049;-78
2024/01/05 05:53:06;;;;;;;19.95;9.70;;;2.30;99.90;;;;;;4879362;29;20064;-78
2024/01/05 05:55:32;;;;;;;22.20;10.95;;;2.30;99.90;;;;;;4863508;29;20104;-78
2024/01/05 05:57:58;;;;;;;20.45;9.70;;;2.30;99.90;;;;;;4863545;29;20064;-78
2024/01/05 06:00:26;;;;;;;21.38;10.50;;;2.40;99.90;;;;;;4863426;29;20128;-78
2024/01/05 06:02:52;;;;;;;18.60;9.48;;;2.40;99.90;;;;;;4863748;29;20404;-78
2024/01/05 06:05:18;;;;;;;23.33;10.65;;;2.40;99.90;;;;;;4863399;29;20485;-78
2024/01/05 06:07:45;;;;;;;23.92;10.80;;;2.40;99.90;;;;;;4863467;29;20060;-78
2024/01/05 06:10:11;;;;;;;20.73;9.77;;;2.40;99.90;;;;;;4863496;29;20072;-78
2024/01/05 06:12:37;;;;;;;24.48;11.27;;;2.40;99.90;;;;;;4863360;29;20493;-78
2024/01/05 06:15:02;;;;;;;23.25;9.90;;;2.40;99.90;;;;;;4863586;29;20053;-78
2024/01/05 06:17:28;;;;;;;20.58;9.95;;;2.40;99.90;;;;;;4863359;29;20045;-78
2024/01/05 06:19:54;;;;;;;25.23;11.55;;;2.40;99.90;;;;;;4879930;29;20128;-78
2024/01/05 06:22:19;;;;;;;30.38;12.60;;;2.40;99.90;;;;;;4879949;29;20049;-78
2024/01/05 06:24:46;;;;;;;26.17;13.15;;;2.40;99.90;;;;;;4879902;29;20048;-78
2024/01/05 06:27:12;;;;;;;23.08;10.93;;;2.40;99.90;;;;;;4863225;29;20060;-78
2024/01/05 06:29:37;;;;;;;26.90;11.68;;;2.40;99.90;;;;;;4863277;29;20057;-78
2024/01/05 06:32:04;;;;;;;23.30;11.27;;;2.40;99.90;;;;;;4879956;29;20041;-78
2024/01/05 06:34:29;;;;;;;26.67;12.02;;;2.50;99.90;;;;;;4879840;29;20429;-78
2024/01/05 06:36:55;;;;;;;32.13;14.18;;;2.50;99.90;;;;;;4862915;29;20041;-77
2024/01/05 06:39:21;;;;;;;27.08;11.50;;;2.40;99.90;;;;;;4863683;29;20108;-78
2024/01/05 06:41:46;;;;;;;35.00;14.02;;;2.50;99.90;;;;;;4882457;29;20053;-78
2024/01/05 06:44:12;;;;;;;27.42;11.98;;;2.50;99.90;;;;;;4866952;29;20052;-78
2024/01/05 06:46:38;;;;;;;28.45;12.07;;;2.60;99.90;;;;;;4866919;29;20049;-78
2024/01/05 06:49:03;;;;;;;25.35;12.77;;;2.60;99.90;;;;;;4866970;29;20055;-78
2024/01/05 06:51:35;;;;;;;27.42;12.45;;;2.60;99.90;;;;;;4866875;29;20582;-78
2024/01/05 06:54:02;;;;;;;25.70;12.73;;;2.60;99.90;;;;;;4866860;29;20177;-78
2024/01/05 06:56:32;;;;;;;32.05;15.25;;;2.60;99.90;;;;;;4866729;29;20044;-78
2024/01/05 06:58:58;;;;;;;31.00;13.60;;;2.60;99.90;;;;;;4866723;29;20528;-78
2024/01/05 07:01:26;;;;;;;25.55;12.93;;;2.60;99.90;;;;;;4866501;29;20049;-78
2024/01/05 07:03:52;;;;;;;24.08;11.43;;;2.60;99.90;;;;;;4866575;29;20101;-78
2024/01/05 07:06:17;;;;;;;22.98;12.25;;;2.70;99.90;;;;;;4866506;29;20461;-78
2024/01/05 07:08:43;;;;;;;33.47;14.48;;;2.70;99.90;;;;;;4866519;29;20496;-78
2024/01/05 07:11:10;;;;;;;28.58;12.40;;;2.70;99.90;;;;;;4866719;29;20084;-78
2024/01/05 07:13:36;;;;;;;27.73;13.48;;;2.70;99.90;;;;;;4866734;29;20061;-78
2024/01/05 07:16:01;;;;;;;26.30;13.25;;;2.80;99.90;;;;;;4883184;29;20096;-78
2024/01/05 07:18:29;;;;;;;23.42;11.23;;;2.80;99.90;;;;;;4866373;29;20056;-78
2024/01/05 07:20:55;;;;;;;23.88;11.77;;;2.80;99.90;;;;;;4866201;29;20127;-78
2024/01/05 07:23:21;;;;;;;24.00;12.38;;;2.80;99.90;;;;;;4866198;29;20556;-78
2024/01/05 07:25:47;;;;;;;27.08;14.13;;;2.80;99.90;;;;;;4882945;29;20053;-78
2024/01/05 07:28:12;;;;;;;28.55;13.07;;;2.80;99.90;;;;;;4866593;29;20057;-78
2024/01/05 07:30:38;;;;;;;29.23;13.63;;;2.80;99.90;;;;;;4866059;29;20425;-78
2024/01/05 07:33:04;;;;;;;27.15;12.30;;;2.80;99.90;;;;;;4866160;29;20045;-78
2024/01/05 07:35:29;;;;;;;25.67;12.57;;;2.80;99.90;;;;;;4881471;29;20053;-77
2024/01/05 07:37:55;;;;;;;27.80;13.43;;;2.80;99.90;;;;;;4866206;29;20136;-79
2024/01/05 07:40:21;;;;;;;31.95;14.52;;;2.80;99.90;;;;;;4866104;29;20055;-79
2024/01/05 07:42:46;;;;;;;24.60;12.45;;;2.70;99.90;;;;;;4882714;29;20396;-78
2024/01/05 07:45:12;;;;;;;27.63;13.50;;;2.80;99.90;;;;;;4866015;29;20063;-78
2024/01/05 07:47:37;;;;;;;28.45;13.75;;;2.80;99.90;;;;;;4866064;29;20044;-78
2024/01/05 07:50:03;;;;;;;25.02;12.63;;;2.80;99.90;;;;;;4865912;29;20362;-79
2024/01/05 07:52:29;;;;;;;25.65;11.00;;;2.80;99.90;;;;;;4865729;29;20430;-78
2024/01/05 07:54:55;;;;;;;22.25;11.00;;;2.80;99.90;;;;;;4882430;29;20057;-78
2024/01/05 07:57:21;;;;;;;26.92;13.50;;;2.80;99.90;;;;;;4865606;29;20382;-78
2024/01/05 07:59:46;;;;;;;29.40;11.45;;;2.80;99.90;;;;;;4865768;29;20430;-79
2024/01/05 08:02:12;;;;;;;23.45;11.77;;;2.80;99.90;;;;;;4865581;29;20049;-78
2024/01/05 08:04:39;;;;;;;25.10;12.13;;;2.80;99.90;;;;;;4864941;29;20059;-78
2024/01/05 08:07:05;;;;;;;26.95;12.13;;;2.80;99.90;;;;;;4865206;29;20456;-78
2024/01/05 08:09:31;;;;;;;21.95;11.48;;;2.90;99.90;;;;;;4865219;29;20465;-80
2024/01/05 08:11:59;;;;;;;20.80;10.60;;;2.90;99.90;;;;;;4857181;29;20129;-79
2024/01/05 08:14:25;;;;;;;24.60;11.05;;;2.90;99.90;;;;;;4851013;29;20034;-77
2024/01/05 08:16:50;;;;;;;26.73;12.63;;;2.90;99.90;;;;;;4862653;29;20468;-77
2024/01/05 08:19:16;;;;;;;26.20;11.55;;;2.90;99.90;;;;;;4864824;29;20045;-77
2024/01/05 08:21:44;;;;;;;20.08;9.35;;;2.90;99.90;;;;;;4881292;29;20049;-77
2024/01/05 08:24:10;;;;;;;23.40;11.00;;;2.90;99.90;;;;;;4864214;29;20496;-77
2024/01/05 08:26:37;;;;;;;26.05;12.10;;;2.90;99.90;;;;;;4864271;29;20404;-78
2024/01/05 08:29:03;;;;;;;26.17;12.43;;;3.00;99.90;;;;;;4864743;29;20045;-77
2024/01/05 08:31:28;;;;;;;27.10;14.52;;;3.00;99.90;;;;;;4864954;29;20052;-78
2024/01/05 08:33:54;;;;;;;25.98;12.73;;;3.00;99.90;;;;;;4864743;29;20497;-78
2024/01/05 08:36:20;;;;;;;26.27;12.93;;;3.00;99.90;;;;;;4864750;29;20398;-78
2024/01/05 08:38:48;;;;;;;29.27;14.63;;;3.00;99.90;;;;;;4864619;29;20063;-79
2024/01/05 08:41:14;;;;;;;34.22;14.50;;;3.00;99.90;;;;;;4881412;29;20052;-79
2024/01/05 08:43:43;;;;;;;26.70;12.43;;;3.00;99.90;;;;;;4864813;29;20093;-79
2024/01/05 08:46:09;;;;;;;29.10;13.23;;;3.00;99.90;;;;;;4881139;29;20093;-79
2024/01/05 08:48:35;;;;;;;29.08;12.55;;;3.00;99.90;;;;;;4864396;29;20053;-79
2024/01/05 08:51:00;;;;;;;28.35;13.57;;;3.00;99.90;;;;;;4864152;29;20045;-79
2024/01/05 08:53:26;;;;;;;31.55;14.02;;;3.00;99.90;;;;;;4868514;29;20051;-79
2024/01/05 08:55:52;;;;;;;28.80;14.32;;;3.10;99.90;;;;;;4875044;29;20052;-79
2024/01/05 08:58:17;;;;;;;26.60;12.80;;;3.00;99.90;;;;;;4882923;29;20400;-79
2024/01/05 09:00:43;;;;;;;32.60;15.95;;;3.10;99.90;;;;;;4882590;29;20135;-77
2024/01/05 09:03:09;;;;;;;35.75;15.13;;;3.10;99.90;;;;;;4899172;29;20552;-77
2024/01/05 09:05:35;;;;;;;34.30;14.70;;;3.10;99.90;;;;;;4882728;29;20057;-77
2024/01/05 09:08:00;;;;;;;30.52;14.57;;;3.20;99.90;;;;;;4882935;29;20045;-77
2024/01/05 09:10:26;;;;;;;33.08;14.73;;;3.10;99.90;;;;;;4882560;29;20106;-81
2024/01/05 09:12:52;;;;;;;32.30;14.85;;;3.10;99.90;;;;;;4882846;29;20087;-79
2024/01/05 09:15:18;;;;;;;31.45;14.05;;;3.20;99.90;;;;;;4882536;29;20617;-78
2024/01/05 09:17:43;;;;;;;36.90;16.33;;;3.20;99.90;;;;;;4899525;29;20085;-78
2024/01/05 09:20:11;;;;;;;30.73;15.00;;;3.20;99.90;;;;;;4899285;29;20052;-77
2024/01/05 09:22:37;;;;;;;34.50;17.73;;;3.20;99.90;;;;;;4882224;29;20059;-79
2024/01/05 09:25:03;;;;;;;29.13;14.10;;;3.20;99.90;;;;;;4882638;29;20044;-78
2024/01/05 09:27:29;;;;;;;35.55;15.93;;;3.20;99.90;;;;;;4882552;29;20056;-76
2024/01/05 09:29:54;;;;;;;36.42;16.73;;;3.20;99.90;;;;;;4899037;29;20504;-76
2024/01/05 09:32:21;;;;;;;29.60;14.00;;;3.20;99.90;;;;;;4882533;29;20484;-77
2024/01/05 09:34:47;;;;;;;26.38;13.25;;;3.20;99.90;;;;;;4882069;29;20048;-77
2024/01/05 09:37:12;;;;;;;30.48;15.27;;;3.30;99.90;;;;;;4882214;29;20056;-78
2024/01/05 09:39:39;;;;;;;33.17;15.93;;;3.20;99.90;;;;;;4882461;29;20244;-78
2024/01/05 09:42:05;;;;;;;27.35;12.88;;;3.30;99.90;;;;;;4882050;29;20095;-78
2024/01/05 09:44:31;;;;;;;27.42;12.05;;;3.30;99.90;;;;;;4898633;29;20037;-77
2024/01/05 09:46:57;;;;;;;25.17;12.20;;;3.30;99.90;;;;;;4873319;29;20056;-77
2024/01/05 09:49:23;;;;;;;25.73;11.88;;;3.30;99.90;;;;;;4871346;29;20052;-76
2024/01/05 09:51:52;;;;;;;25.80;12.02;;;3.30;99.90;;;;;;4896522;29;20037;-77
2024/01/05 09:54:17;;;;;;;23.77;11.05;;;3.30;99.90;;;;;;4872061;29;20052;-77
2024/01/05 09:56:46;;;;;;;20.92;10.10;;;3.30;99.90;;;;;;4870947;29;20049;-77
2024/01/05 09:59:12;;;;;;;19.90;10.10;;;3.40;99.90;;;;;;4868980;29;20041;-77
2024/01/05 10:01:39;;;;;;;20.25;9.40;;;3.40;99.90;;;;;;4871829;29;20064;-77
2024/01/05 10:04:09;;;;;;;16.50;7.75;;;3.40;99.90;;;;;;4895984;29;20069;-77
2024/01/05 10:06:34;;;;;;;20.67;7.68;;;3.40;99.90;;;;;;4871434;29;20045;-77
2024/01/05 10:09:00;;;;;;;17.48;8.30;;;3.40;99.90;;;;;;4871520;29;20048;-77
2024/01/05 10:11:41;;;;;;;15.10;7.93;;;3.40;99.90;;;;;;4872673;29;20059;-77
2024/01/05 10:14:11;;;;;;;21.50;9.15;;;3.40;99.90;;;;;;4894401;29;20501;-77
2024/01/05 10:16:37;;;;;;;19.85;9.43;;;3.40;99.90;;;;;;4870720;29;20170;-77
2024/01/05 10:19:11;;;;;;;19.42;8.52;;;3.40;99.90;;;;;;4871919;29;20072;-76
2024/01/05 10:21:44;;;;;;;16.65;7.78;;;3.50;99.90;;;;;;4872607;29;20413;-77
2024/01/05 10:24:26;;;;;;;15.60;7.43;;;3.50;99.90;;;;;;4886813;29;20450;-78
2024/01/05 10:27:10;;;;;;;18.42;7.82;;;3.50;99.90;;;;;;4867154;29;20048;-77
2024/01/05 10:29:37;;;;;;;;;;;3.50;99.90;;;;;;4872653;29;20048;-78
2024/01/05 10:32:17;;;;;;;17.88;7.47;;;3.50;99.90;;;;;;4871362;29;19958;-77
2024/01/05 10:34:52;;;;;;;14.27;6.97;;;3.50;99.90;;;;;;4871263;29;20055;-78
2024/01/05 10:37:22;;;;;;;17.25;7.25;;;3.50;99.90;;;;;;4864362;29;20049;-77
2024/01/05 10:39:54;;;;;;;16.77;8.38;;;3.60;99.90;;;;;;4864950;29;20049;-78
2024/01/05 10:42:23;;;;;;;15.52;6.88;;;3.60;99.90;;;;;;4871102;29;20049;-77
2024/01/05 10:44:51;;;;;;;16.27;7.95;;;3.60;99.90;;;;;;4868183;29;20177;-77
2024/01/05 10:47:22;;;;;;;15.48;7.60;;;3.70;99.90;;;;;;4871909;29;20401;-76
2024/01/05 10:49:53;;;;;;;18.67;8.50;;;3.70;99.90;;;;;;4865100;29;20503;-77
2024/01/05 10:52:24;;;;;;;17.25;8.48;;;3.70;99.90;;;;;;4879797;29;20436;-77
2024/01/05 10:54:52;;;;;;;15.07;7.63;;;3.70;99.90;;;;;;4887284;29;20044;-77
2024/01/05 10:57:19;;;;;;;19.85;9.77;;;3.70;99.90;;;;;;4895371;29;20449;-77
2024/01/05 10:59:45;;;;;;;18.00;9.32;;;3.70;99.90;;;;;;4862014;29;20117;-77
2024/01/05 11:02:34;;;;;;;18.75;9.20;;;3.80;99.90;;;;;;4871075;29;20041;-77
2024/01/05 11:05:08;;;;;;;18.55;9.70;;;3.80;99.90;;;;;;4871652;29;20140;-77
2024/01/05 11:07:35;;;;;;;22.67;9.38;;;3.80;99.90;;;;;;4894157;29;20473;-77
2024/01/05 11:10:13;;;;;;;23.85;12.43;;;3.80;99.90;;;;;;4895626;29;20052;-77
2024/01/05 11:13:10;;;;;;;21.02;9.80;;;3.70;99.90;;;;;;4872119;29;20048;-77
2024/01/05 11:16:05;;;;;;;21.30;10.65;;;3.80;99.90;;;;;;4870688;29;20052;-77
2024/01/05 11:18:48;;;;;;;18.48;9.45;;;3.70;99.90;;;;;;4844143;29;20058;-77
2024/01/05 11:21:19;;;;;;;21.73;10.38;;;3.80;99.90;;;;;;4843860;29;20454;-77
2024/01/05 11:23:47;;;;;;;22.75;11.32;;;3.80;99.90;;;;;;4854789;29;20049;-78
2024/01/05 11:26:34;;;;;;;20.00;9.35;;;3.80;99.90;;;;;;4870745;29;20044;-77
2024/01/05 11:29:00;;;;;;;19.42;9.60;;;3.90;99.90;;;;;;4884727;29;20076;-77
2024/01/05 11:31:45;;;;;;;19.60;8.93;;;3.90;99.90;;;;;;4884454;29;20053;-77
2024/01/05 11:34:34;;;;;;;20.48;9.88;;;3.90;99.90;;;;;;4876026;29;20053;-77
2024/01/05 11:37:04;;;;;;;20.27;9.80;;;3.90;99.90;;;;;;4865387;29;20067;-77
2024/01/05 11:39:49;;;;;;;24.85;11.05;;;4.00;99.90;;;;;;4865684;29;20401;-77
2024/01/05 11:42:24;;;;;;;22.70;11.27;;;4.00;99.90;;;;;;4882281;29;20449;-77
2024/01/05 11:44:53;;;;;;;22.42;10.38;;;4.00;99.90;;;;;;4865603;29;20045;-77
2024/01/05 11:47:41;;;;;;;22.98;11.02;;;4.00;99.90;;;;;;4865716;29;20077;-77
2024/01/05 11:50:24;;;;;;;22.13;10.95;;;4.10;99.90;;;;;;4865506;29;20096;-78
2024/01/05 11:53:24;;;;;;;19.15;8.50;;;4.20;99.90;;;;;;4899659;29;20493;-78
2024/01/05 11:55:53;;;;;;;23.63;10.05;;;4.30;99.90;;;;;;4883623;29;20556;-78
2024/01/05 11:58:31;;;;;;;23.85;10.25;;;4.20;99.90;;;;;;4878073;29;20048;-78
2024/01/05 12:01:02;;;;;;;20.40;8.98;;;4.30;99.90;;;;;;4846745;29;20405;-78
2024/01/05 12:03:30;;;;;;;19.45;9.13;;;4.40;99.90;;;;;;4846620;29;20053;-78
2024/01/05 12:05:57;;;;;;;24.73;10.73;;;4.40;99.90;;;;;;4846801;29;20104;-78
2024/01/05 12:08:23;;;;;;;22.33;9.43;;;4.30;99.90;;;;;;4846666;29;20486;-78
2024/01/05 12:10:54;;;;;;;22.80;9.35;;;4.40;99.90;;;;;;4846639;29;20554;-78
2024/01/05 12:13:27;;;;;;;20.70;10.82;;;4.40;99.90;;;;;;4866911;29;20040;-77
2024/01/05 12:15:57;;;;;;;18.67;8.77;;;4.40;99.90;;;;;;4867744;29;20057;-77
2024/01/05 12:18:25;;;;;;;19.88;9.48;;;4.40;99.90;;;;;;4868437;29;20068;-78
2024/01/05 12:20:55;;;;;;;21.00;9.98;;;4.40;99.90;;;;;;4875295;29;20044;-78
2024/01/05 12:23:21;;;;;;;22.40;10.27;;;4.40;99.90;;;;;;4883599;29;20063;-78
2024/01/05 12:26:04;;;;;;;20.25;8.90;;;4.30;99.90;;;;;;4879591;29;20045;-77
2024/01/05 12:28:31;;;;;;;;;;;4.40;99.90;;;;;;4865077;29;20128;-78
2024/01/05 12:31:00;;;;;;;22.20;9.65;;;4.40;99.90;;;;;;4864968;29;19923;-78
2024/01/05 12:33:27;;;;;;;19.85;10.20;;;4.50;99.90;;;;;;4896087;29;20485;-78
2024/01/05 12:35:53;;;;;;;19.30;9.50;;;4.50;99.90;;;;;;4895758;29;20084;-78
2024/01/05 12:38:29;;;;;;;18.75;9.32;;;4.50;99.90;;;;;;4894888;29;20051;-78
2024/01/05 12:41:13;;;;;;;21.63;9.52;;;4.50;99.90;;;;;;4864210;29;20043;-78
2024/01/05 12:43:50;;;;;;;20.50;10.15;;;4.50;99.90;;;;;;4861942;29;20059;-78
2024/01/05 12:46:17;;;;;;;18.50;10.05;;;4.50;99.90;;;;;;4852847;29;20496;-78